sensor_id;sensor_type;location;lat;lon;timestamp;P1;durP1;ratioP1;P2;durP2;ratioP2
76989;SDS011;65924;47.250;11.332;2023-05-19T00:00:39;6.50;;;4.20;;
76989;SDS011;65924;47.250;11.332;2023-05-19T00:01:18;7.40;;;4.20;;
76989;SDS011;65924;47.250;11.332;2023-05-19T00:01:56;8.40;;;4.00;;
76989;SDS011;65924;47.250;11.332;2023-05-19T00:02:37;6.30;;;3.60;;
76989;SDS011;65924;47.250;11.332;2023-05-19T00:03:16;6.90;;;3.40;;
76989;SDS011;65924;47.250;11.332;2023-05-19T00:03:58;6.60;;;3.80;;
76989;SDS011;65924;47.250;11.332;2023-05-19T00:04:40;7.60;;;3.50;;
76989;SDS011;65924;47.250;11.332;2023-05-19T00:05:19;6.90;;;4.00;;
76989;SDS011;65924;47.250;11.332;2023-05-19T00:05:58;5.70;;;3.40;;
76989;SDS011;65924;47.250;11.332;2023-05-19T00:06:39;6.00;;;3.60;;
76989;SDS011;65924;47.250;11.332;2023-05-19T00:07:18;7.30;;;4.10;;
76989;SDS011;65924;47.250;11.332;2023-05-19T00:08:05;7.70;;;4.30;;
76989;SDS011;65924;47.250;11.332;2023-05-19T00:08:47;6.70;;;4.30;;
76989;SDS011;65924;47.250;11.332;2023-05-19T00:09:27;9.00;;;4.80;;
76989;SDS011;65924;47.250;11.332;2023-05-19T00:10:06;8.10;;;4.30;;
76989;SDS011;65924;47.250;11.332;2023-05-19T00:10:45;5.90;;;3.60;;
76989;SDS011;65924;47.250;11.332;2023-05-19T00:11:24;7.60;;;3.80;;
76989;SDS011;65924;47.250;11.332;2023-05-19T00:12:04;6.30;;;4.00;;
76989;SDS011;65924;47.250;11.332;2023-05-19T00:12:43;6.80;;;3.20;;
76989;SDS011;65924;47.250;11.332;2023-05-19T00:13:22;7.10;;;3.80;;
76989;SDS011;65924;47.250;11.332;2023-05-19T00:14:01;6.00;;;3.40;;
76989;SDS011;65924;47.250;11.332;2023-05-19T00:14:42;7.00;;;3.70;;
76989;SDS011;65924;47.250;11.332;2023-05-19T00:15:21;5.10;;;2.60;;
76989;SDS011;65924;47.250;11.332;2023-05-19T00:15:59;8.70;;;4.50;;
76989;SDS011;65924;47.250;11.332;2023-05-19T00:16:38;6.20;;;3.40;;
76989;SDS011;65924;47.250;11.332;2023-05-19T00:17:17;8.10;;;3.90;;
76989;SDS011;65924;47.250;11.332;2023-05-19T00:17:57;6.00;;;3.40;;
76989;SDS011;65924;47.250;11.332;2023-05-19T00:18:35;7.20;;;3.70;;
76989;SDS011;65924;47.250;11.332;2023-05-19T00:19:14;6.60;;;3.70;;
76989;SDS011;65924;47.250;11.332;2023-05-19T00:19:54;5.80;;;3.10;;
76989;SDS011;65924;47.250;11.332;2023-05-19T00:20:32;7.90;;;4.10;;
76989;SDS011;65924;47.250;11.332;2023-05-19T00:21:11;4.60;;;2.80;;
76989;SDS011;65924;47.250;11.332;2023-05-19T00:21:49;5.50;;;3.40;;
76989;SDS011;65924;47.250;11.332;2023-05-19T00:22:27;5.50;;;2.60;;
76989;SDS011;65924;47.250;11.332;2023-05-19T00:23:06;7.90;;;3.90;;
76989;SDS011;65924;47.250;11.332;2023-05-19T00:23:44;9.00;;;3.90;;
76989;SDS011;65924;47.250;11.332;2023-05-19T00:24:23;5.80;;;3.50;;
76989;SDS011;65924;47.250;11.332;2023-05-19T00:25:02;8.10;;;3.80;;
76989;SDS011;65924;47.250;11.332;2023-05-19T00:25:41;6.40;;;3.20;;
76989;SDS011;65924;47.250;11.332;2023-05-19T00:26:19;7.30;;;3.90;;
76989;SDS011;65924;47.250;11.332;2023-05-19T00:27:05;6.60;;;3.00;;
76989;SDS011;65924;47.250;11.332;2023-05-19T00:27:44;6.20;;;2.60;;
76989;SDS011;65924;47.250;11.332;2023-05-19T00:28:23;7.50;;;3.30;;
76989;SDS011;65924;47.250;11.332;2023-05-19T00:29:04;6.50;;;3.50;;
76989;SDS011;65924;47.250;11.332;2023-05-19T00:29:43;6.50;;;3.90;;
76989;SDS011;65924;47.250;11.332;2023-05-19T00:30:21;6.10;;;3.20;;
76989;SDS011;65924;47.250;11.332;2023-05-19T00:31:00;5.30;;;3.30;;
76989;SDS011;65924;47.250;11.332;2023-05-19T00:31:40;5.60;;;3.00;;
76989;SDS011;65924;47.250;11.332;2023-05-19T00:32:20;7.20;;;3.20;;
76989;SDS011;65924;47.250;11.332;2023-05-19T00:32:59;5.70;;;3.20;;
76989;SDS011;65924;47.250;11.332;2023-05-19T00:33:38;6.30;;;3.50;;
76989;SDS011;65924;47.250;11.332;2023-05-19T00:34:16;8.00;;;3.20;;
76989;SDS011;65924;47.250;11.332;2023-05-19T00:34:55;4.40;;;2.10;;
76989;SDS011;65924;47.250;11.332;2023-05-19T00:35:34;5.30;;;2.90;;
76989;SDS011;65924;47.250;11.332;2023-05-19T00:36:12;5.30;;;2.60;;
76989;SDS011;65924;47.250;11.332;2023-05-19T00:36:51;4.10;;;2.00;;
76989;SDS011;65924;47.250;11.332;2023-05-19T00:37:30;3.50;;;1.40;;
76989;SDS011;65924;47.250;11.332;2023-05-19T00:38:08;4.10;;;2.50;;
76989;SDS011;65924;47.250;11.332;2023-05-19T00:38:47;3.50;;;1.40;;
76989;SDS011;65924;47.250;11.332;2023-05-19T00:39:25;3.60;;;2.20;;
76989;SDS011;65924;47.250;11.332;2023-05-19T00:40:04;4.60;;;1.90;;
76989;SDS011;65924;47.250;11.332;2023-05-19T00:40:44;3.70;;;1.80;;
76989;SDS011;65924;47.250;11.332;2023-05-19T00:41:23;4.10;;;1.80;;
76989;SDS011;65924;47.250;11.332;2023-05-19T00:42:02;3.60;;;1.30;;
76989;SDS011;65924;47.250;11.332;2023-05-19T00:42:42;6.20;;;3.10;;
76989;SDS011;65924;47.250;11.332;2023-05-19T00:43:22;5.90;;;3.20;;
76989;SDS011;65924;47.250;11.332;2023-05-19T00:44:00;5.50;;;3.30;;
76989;SDS011;65924;47.250;11.332;2023-05-19T00:44:39;6.10;;;3.20;;
76989;SDS011;65924;47.250;11.332;2023-05-19T00:45:19;6.40;;;3.20;;
76989;SDS011;65924;47.250;11.332;2023-05-19T00:45:59;5.70;;;2.90;;
76989;SDS011;65924;47.250;11.332;2023-05-19T00:46:38;6.70;;;3.30;;
76989;SDS011;65924;47.250;11.332;2023-05-19T00:47:16;5.70;;;3.60;;
76989;SDS011;65924;47.250;11.332;2023-05-19T00:47:55;8.10;;;3.40;;
76989;SDS011;65924;47.250;11.332;2023-05-19T00:48:33;6.20;;;3.20;;
76989;SDS011;65924;47.250;11.332;2023-05-19T00:49:12;7.10;;;3.90;;
76989;SDS011;65924;47.250;11.332;2023-05-19T00:49:50;6.60;;;3.80;;
76989;SDS011;65924;47.250;11.332;2023-05-19T00:50:29;5.60;;;3.20;;
76989;SDS011;65924;47.250;11.332;2023-05-19T00:51:08;7.30;;;3.70;;
76989;SDS011;65924;47.250;11.332;2023-05-19T00:51:46;6.80;;;4.10;;
76989;SDS011;65924;47.250;11.332;2023-05-19T00:52:26;5.30;;;3.40;;
76989;SDS011;65924;47.250;11.332;2023-05-19T00:53:05;8.50;;;3.40;;
76989;SDS011;65924;47.250;11.332;2023-05-19T00:53:45;7.60;;;3.40;;
76989;SDS011;65924;47.250;11.332;2023-05-19T00:54:27;5.30;;;3.10;;
76989;SDS011;65924;47.250;11.332;2023-05-19T00:55:06;3.70;;;1.60;;
76989;SDS011;65924;47.250;11.332;2023-05-19T00:55:46;4.70;;;2.10;;
76989;SDS011;65924;47.250;11.332;2023-05-19T00:56:25;4.00;;;2.20;;
76989;SDS011;65924;47.250;11.332;2023-05-19T00:57:04;3.90;;;1.70;;
76989;SDS011;65924;47.250;11.332;2023-05-19T00:57:42;4.50;;;1.60;;
76989;SDS011;65924;47.250;11.332;2023-05-19T00:58:22;3.90;;;2.00;;
76989;SDS011;65924;47.250;11.332;2023-05-19T00:59:06;3.20;;;1.40;;
76989;SDS011;65924;47.250;11.332;2023-05-19T00:59:46;5.70;;;2.90;;
76989;SDS011;65924;47.250;11.332;2023-05-19T01:00:28;7.70;;;3.60;;
76989;SDS011;65924;47.250;11.332;2023-05-19T01:01:07;6.20;;;3.40;;
76989;SDS011;65924;47.250;11.332;2023-05-19T01:01:46;5.20;;;2.80;;
76989;SDS011;65924;47.250;11.332;2023-05-19T01:02:26;5.60;;;3.30;;
76989;SDS011;65924;47.250;11.332;2023-05-19T01:03:06;6.00;;;3.40;;
76989;SDS011;65924;47.250;11.332;2023-05-19T01:03:48;6.20;;;3.20;;
76989;SDS011;65924;47.250;11.332;2023-05-19T01:04:27;8.40;;;3.60;;
76989;SDS011;65924;47.250;11.332;2023-05-19T01:05:07;10.20;;;3.10;;
76989;SDS011;65924;47.250;11.332;2023-05-19T01:05:46;5.10;;;3.00;;
76989;SDS011;65924;47.250;11.332;2023-05-19T01:06:24;6.70;;;3.40;;
76989;SDS011;65924;47.250;11.332;2023-05-19T01:07:04;5.90;;;3.30;;
76989;SDS011;65924;47.250;11.332;2023-05-19T01:07:44;6.70;;;3.10;;
76989;SDS011;65924;47.250;11.332;2023-05-19T01:08:24;7.10;;;3.60;;
76989;SDS011;65924;47.250;11.332;2023-05-19T01:09:03;5.10;;;3.30;;
76989;SDS011;65924;47.250;11.332;2023-05-19T01:09:41;5.30;;;2.60;;
76989;SDS011;65924;47.250;11.332;2023-05-19T01:10:20;5.10;;;3.10;;
76989;SDS011;65924;47.250;11.332;2023-05-19T01:10:59;7.40;;;3.40;;
76989;SDS011;65924;47.250;11.332;2023-05-19T01:11:38;6.50;;;3.50;;
76989;SDS011;65924;47.250;11.332;2023-05-19T01:12:17;6.80;;;3.20;;
76989;SDS011;65924;47.250;11.332;2023-05-19T01:12:55;5.50;;;3.30;;
76989;SDS011;65924;47.250;11.332;2023-05-19T01:13:34;3.90;;;2.10;;
76989;SDS011;65924;47.250;11.332;2023-05-19T01:14:14;7.30;;;3.20;;
76989;SDS011;65924;47.250;11.332;2023-05-19T01:14:53;6.50;;;3.00;;
76989;SDS011;65924;47.250;11.332;2023-05-19T01:15:32;5.70;;;3.40;;
76989;SDS011;65924;47.250;11.332;2023-05-19T01:16:24;5.60;;;3.40;;
76989;SDS011;65924;47.250;11.332;2023-05-19T01:18:40;6.30;;;3.60;;
76989;SDS011;65924;47.250;11.332;2023-05-19T01:19:29;6.30;;;4.00;;
76989;SDS011;65924;47.250;11.332;2023-05-19T01:20:30;8.00;;;3.30;;
76989;SDS011;65924;47.250;11.332;2023-05-19T01:21:29;7.30;;;3.20;;
76989;SDS011;65924;47.250;11.332;2023-05-19T01:23:29;6.10;;;2.90;;
76989;SDS011;65924;47.250;11.332;2023-05-19T01:30:55;6.60;;;3.00;;
76989;SDS011;65924;47.250;11.332;2023-05-19T01:31:36;6.60;;;3.50;;
76989;SDS011;65924;47.250;11.332;2023-05-19T01:32:18;6.00;;;3.40;;
76989;SDS011;65924;47.250;11.332;2023-05-19T01:33:00;6.80;;;3.10;;
76989;SDS011;65924;47.250;11.332;2023-05-19T01:33:42;6.60;;;3.60;;
76989;SDS011;65924;47.250;11.332;2023-05-19T01:34:21;5.90;;;3.30;;
76989;SDS011;65924;47.250;11.332;2023-05-19T01:35:02;6.30;;;2.90;;
76989;SDS011;65924;47.250;11.332;2023-05-19T01:35:43;4.20;;;2.20;;
76989;SDS011;65924;47.250;11.332;2023-05-19T01:36:23;6.00;;;3.30;;
76989;SDS011;65924;47.250;11.332;2023-05-19T01:37:03;6.00;;;3.30;;
76989;SDS011;65924;47.250;11.332;2023-05-19T01:37:43;6.20;;;3.40;;
76989;SDS011;65924;47.250;11.332;2023-05-19T01:38:24;7.60;;;3.90;;
76989;SDS011;65924;47.250;11.332;2023-05-19T01:39:03;5.70;;;3.30;;
76989;SDS011;65924;47.250;11.332;2023-05-19T01:39:43;7.70;;;3.50;;
76989;SDS011;65924;47.250;11.332;2023-05-19T01:40:23;6.20;;;3.60;;
76989;SDS011;65924;47.250;11.332;2023-05-19T01:41:03;7.00;;;3.70;;
76989;SDS011;65924;47.250;11.332;2023-05-19T01:41:46;7.30;;;3.60;;
76989;SDS011;65924;47.250;11.332;2023-05-19T01:42:25;5.50;;;3.70;;
76989;SDS011;65924;47.250;11.332;2023-05-19T01:43:05;6.60;;;3.40;;
76989;SDS011;65924;47.250;11.332;2023-05-19T01:43:47;5.30;;;2.70;;
76989;SDS011;65924;47.250;11.332;2023-05-19T01:44:26;6.90;;;3.70;;
76989;SDS011;65924;47.250;11.332;2023-05-19T01:45:06;6.00;;;3.50;;
76989;SDS011;65924;47.250;11.332;2023-05-19T01:45:48;6.90;;;3.50;;
76989;SDS011;65924;47.250;11.332;2023-05-19T01:46:29;7.20;;;3.90;;
76989;SDS011;65924;47.250;11.332;2023-05-19T01:47:08;7.70;;;4.30;;
76989;SDS011;65924;47.250;11.332;2023-05-19T01:47:49;7.30;;;3.70;;
76989;SDS011;65924;47.250;11.332;2023-05-19T01:48:33;6.00;;;3.50;;
76989;SDS011;65924;47.250;11.332;2023-05-19T01:49:11;5.70;;;3.40;;
76989;SDS011;65924;47.250;11.332;2023-05-19T01:49:50;8.90;;;3.60;;
76989;SDS011;65924;47.250;11.332;2023-05-19T01:50:30;6.60;;;3.70;;
76989;SDS011;65924;47.250;11.332;2023-05-19T01:51:09;6.30;;;3.70;;
76989;SDS011;65924;47.250;11.332;2023-05-19T01:51:48;7.70;;;3.40;;
76989;SDS011;65924;47.250;11.332;2023-05-19T01:52:27;5.90;;;3.40;;
76989;SDS011;65924;47.250;11.332;2023-05-19T01:53:05;7.00;;;3.50;;
76989;SDS011;65924;47.250;11.332;2023-05-19T01:53:46;6.80;;;3.40;;
76989;SDS011;65924;47.250;11.332;2023-05-19T01:54:24;5.60;;;3.10;;
76989;SDS011;65924;47.250;11.332;2023-05-19T01:55:03;4.40;;;2.10;;
76989;SDS011;65924;47.250;11.332;2023-05-19T01:55:43;5.20;;;2.20;;
76989;SDS011;65924;47.250;11.332;2023-05-19T01:57:29;4.70;;;2.00;;
76989;SDS011;65924;47.250;11.332;2023-05-19T01:58:20;5.30;;;2.10;;
76989;SDS011;65924;47.250;11.332;2023-05-19T01:59:13;5.50;;;2.90;;
76989;SDS011;65924;47.250;11.332;2023-05-19T02:00:09;4.60;;;1.90;;
76989;SDS011;65924;47.250;11.332;2023-05-19T02:01:12;3.00;;;1.50;;
76989;SDS011;65924;47.250;11.332;2023-05-19T02:02:16;3.10;;;1.30;;
76989;SDS011;65924;47.250;11.332;2023-05-19T02:04:18;6.00;;;3.30;;
76989;SDS011;65924;47.250;11.332;2023-05-19T02:07:43;5.50;;;3.20;;
76989;SDS011;65924;47.250;11.332;2023-05-19T02:10:29;5.00;;;2.80;;
76989;SDS011;65924;47.250;11.332;2023-05-19T02:11:30;4.80;;;2.70;;
76989;SDS011;65924;47.250;11.332;2023-05-19T02:12:24;6.40;;;2.80;;
76989;SDS011;65924;47.250;11.332;2023-05-19T02:13:10;6.00;;;3.40;;
76989;SDS011;65924;47.250;11.332;2023-05-19T02:13:52;5.90;;;2.90;;
76989;SDS011;65924;47.250;11.332;2023-05-19T02:14:34;4.40;;;2.20;;
76989;SDS011;65924;47.250;11.332;2023-05-19T02:15:25;4.90;;;2.60;;
76989;SDS011;65924;47.250;11.332;2023-05-19T02:16:12;4.90;;;2.70;;
76989;SDS011;65924;47.250;11.332;2023-05-19T02:16:51;4.30;;;2.40;;
76989;SDS011;65924;47.250;11.332;2023-05-19T02:17:35;5.60;;;2.30;;
76989;SDS011;65924;47.250;11.332;2023-05-19T02:19:02;4.50;;;2.40;;
76989;SDS011;65924;47.250;11.332;2023-05-19T02:19:41;4.40;;;2.30;;
76989;SDS011;65924;47.250;11.332;2023-05-19T02:20:21;3.10;;;1.50;;
76989;SDS011;65924;47.250;11.332;2023-05-19T02:21:00;4.50;;;2.30;;
76989;SDS011;65924;47.250;11.332;2023-05-19T02:21:39;3.90;;;2.00;;
76989;SDS011;65924;47.250;11.332;2023-05-19T02:22:17;4.00;;;1.50;;
76989;SDS011;65924;47.250;11.332;2023-05-19T02:22:56;2.70;;;1.20;;
76989;SDS011;65924;47.250;11.332;2023-05-19T02:23:35;4.00;;;1.70;;
76989;SDS011;65924;47.250;11.332;2023-05-19T02:24:13;4.20;;;2.20;;
76989;SDS011;65924;47.250;11.332;2023-05-19T02:24:52;3.90;;;1.80;;
76989;SDS011;65924;47.250;11.332;2023-05-19T02:25:30;3.70;;;1.60;;
76989;SDS011;65924;47.250;11.332;2023-05-19T02:26:11;3.80;;;1.70;;
76989;SDS011;65924;47.250;11.332;2023-05-19T02:26:50;3.80;;;1.50;;
76989;SDS011;65924;47.250;11.332;2023-05-19T02:27:30;4.50;;;1.80;;
76989;SDS011;65924;47.250;11.332;2023-05-19T02:28:08;2.70;;;1.10;;
76989;SDS011;65924;47.250;11.332;2023-05-19T02:28:47;3.20;;;1.20;;
76989;SDS011;65924;47.250;11.332;2023-05-19T02:29:25;6.50;;;3.10;;
76989;SDS011;65924;47.250;11.332;2023-05-19T02:30:04;6.70;;;3.40;;
76989;SDS011;65924;47.250;11.332;2023-05-19T02:30:44;4.60;;;2.30;;
76989;SDS011;65924;47.250;11.332;2023-05-19T02:31:22;7.70;;;2.50;;
76989;SDS011;65924;47.250;11.332;2023-05-19T02:32:01;3.30;;;1.60;;
76989;SDS011;65924;47.250;11.332;2023-05-19T02:32:39;3.50;;;1.70;;
76989;SDS011;65924;47.250;11.332;2023-05-19T02:33:18;4.20;;;2.00;;
76989;SDS011;65924;47.250;11.332;2023-05-19T02:33:57;5.90;;;3.20;;
76989;SDS011;65924;47.250;11.332;2023-05-19T02:34:35;6.50;;;3.10;;
76989;SDS011;65924;47.250;11.332;2023-05-19T02:35:16;5.20;;;3.10;;
76989;SDS011;65924;47.250;11.332;2023-05-19T02:35:55;5.40;;;3.30;;
76989;SDS011;65924;47.250;11.332;2023-05-19T02:36:35;6.40;;;3.10;;
76989;SDS011;65924;47.250;11.332;2023-05-19T02:37:14;7.30;;;3.60;;
76989;SDS011;65924;47.250;11.332;2023-05-19T02:37:53;6.80;;;3.40;;
76989;SDS011;65924;47.250;11.332;2023-05-19T02:38:32;5.80;;;3.10;;
76989;SDS011;65924;47.250;11.332;2023-05-19T02:39:10;5.70;;;2.90;;
76989;SDS011;65924;47.250;11.332;2023-05-19T02:39:50;4.60;;;2.50;;
76989;SDS011;65924;47.250;11.332;2023-05-19T02:40:29;5.30;;;2.20;;
76989;SDS011;65924;47.250;11.332;2023-05-19T02:41:07;6.70;;;3.20;;
76989;SDS011;65924;47.250;11.332;2023-05-19T02:41:46;6.50;;;3.30;;
76989;SDS011;65924;47.250;11.332;2023-05-19T02:42:24;5.60;;;3.60;;
76989;SDS011;65924;47.250;11.332;2023-05-19T02:43:04;5.90;;;3.20;;
76989;SDS011;65924;47.250;11.332;2023-05-19T02:43:43;5.60;;;3.30;;
76989;SDS011;65924;47.250;11.332;2023-05-19T02:44:22;7.50;;;3.00;;
76989;SDS011;65924;47.250;11.332;2023-05-19T02:45:00;5.70;;;3.30;;
76989;SDS011;65924;47.250;11.332;2023-05-19T02:45:39;6.80;;;3.60;;
76989;SDS011;65924;47.250;11.332;2023-05-19T02:46:17;5.90;;;3.60;;
76989;SDS011;65924;47.250;11.332;2023-05-19T02:46:56;7.10;;;3.80;;
76989;SDS011;65924;47.250;11.332;2023-05-19T02:47:34;6.80;;;3.80;;
76989;SDS011;65924;47.250;11.332;2023-05-19T02:48:13;6.80;;;4.00;;
76989;SDS011;65924;47.250;11.332;2023-05-19T02:48:51;6.60;;;3.60;;
76989;SDS011;65924;47.250;11.332;2023-05-19T02:49:31;6.90;;;3.70;;
76989;SDS011;65924;47.250;11.332;2023-05-19T02:50:13;5.50;;;3.30;;
76989;SDS011;65924;47.250;11.332;2023-05-19T02:50:51;5.80;;;3.40;;
76989;SDS011;65924;47.250;11.332;2023-05-19T02:51:30;6.00;;;3.30;;
76989;SDS011;65924;47.250;11.332;2023-05-19T02:52:08;6.60;;;4.00;;
76989;SDS011;65924;47.250;11.332;2023-05-19T02:52:47;6.30;;;3.70;;
76989;SDS011;65924;47.250;11.332;2023-05-19T02:53:25;4.00;;;2.50;;
76989;SDS011;65924;47.250;11.332;2023-05-19T02:54:04;5.30;;;2.70;;
76989;SDS011;65924;47.250;11.332;2023-05-19T02:54:42;5.80;;;3.50;;
76989;SDS011;65924;47.250;11.332;2023-05-19T02:55:21;7.20;;;3.40;;
76989;SDS011;65924;47.250;11.332;2023-05-19T02:56:00;6.70;;;3.10;;
76989;SDS011;65924;47.250;11.332;2023-05-19T02:56:38;5.50;;;3.50;;
76989;SDS011;65924;47.250;11.332;2023-05-19T02:57:17;5.90;;;2.70;;
76989;SDS011;65924;47.250;11.332;2023-05-19T02:57:55;5.30;;;3.40;;
76989;SDS011;65924;47.250;11.332;2023-05-19T02:58:34;7.70;;;3.10;;
76989;SDS011;65924;47.250;11.332;2023-05-19T02:59:12;5.70;;;3.40;;
76989;SDS011;65924;47.250;11.332;2023-05-19T02:59:51;5.90;;;2.90;;
76989;SDS011;65924;47.250;11.332;2023-05-19T03:00:30;5.30;;;3.00;;
76989;SDS011;65924;47.250;11.332;2023-05-19T03:01:08;5.70;;;2.80;;
76989;SDS011;65924;47.250;11.332;2023-05-19T03:01:48;6.00;;;2.40;;
76989;SDS011;65924;47.250;11.332;2023-05-19T03:02:27;3.40;;;1.60;;
76989;SDS011;65924;47.250;11.332;2023-05-19T03:03:05;5.10;;;3.00;;
76989;SDS011;65924;47.250;11.332;2023-05-19T03:03:44;6.00;;;3.00;;
76989;SDS011;65924;47.250;11.332;2023-05-19T03:04:23;4.80;;;3.00;;
76989;SDS011;65924;47.250;11.332;2023-05-19T03:05:02;4.80;;;2.30;;
76989;SDS011;65924;47.250;11.332;2023-05-19T03:05:41;3.90;;;1.80;;
76989;SDS011;65924;47.250;11.332;2023-05-19T03:06:20;5.80;;;1.70;;
76989;SDS011;65924;47.250;11.332;2023-05-19T03:07:00;3.80;;;2.10;;
76989;SDS011;65924;47.250;11.332;2023-05-19T03:07:39;4.00;;;1.90;;
76989;SDS011;65924;47.250;11.332;2023-05-19T03:08:18;4.40;;;2.30;;
76989;SDS011;65924;47.250;11.332;2023-05-19T03:08:57;3.40;;;1.60;;
76989;SDS011;65924;47.250;11.332;2023-05-19T03:09:36;4.50;;;2.10;;
76989;SDS011;65924;47.250;11.332;2023-05-19T03:10:15;6.50;;;3.60;;
76989;SDS011;65924;47.250;11.332;2023-05-19T03:10:53;6.00;;;3.10;;
76989;SDS011;65924;47.250;11.332;2023-05-19T03:11:32;5.90;;;3.10;;
76989;SDS011;65924;47.250;11.332;2023-05-19T03:12:11;6.70;;;3.60;;
76989;SDS011;65924;47.250;11.332;2023-05-19T03:12:49;5.50;;;3.00;;
76989;SDS011;65924;47.250;11.332;2023-05-19T03:13:28;6.00;;;3.00;;
76989;SDS011;65924;47.250;11.332;2023-05-19T03:14:06;5.50;;;3.30;;
76989;SDS011;65924;47.250;11.332;2023-05-19T03:14:50;4.50;;;2.00;;
76989;SDS011;65924;47.250;11.332;2023-05-19T03:15:29;5.90;;;3.00;;
76989;SDS011;65924;47.250;11.332;2023-05-19T03:16:08;6.10;;;3.60;;
76989;SDS011;65924;47.250;11.332;2023-05-19T03:16:46;7.70;;;4.10;;
76989;SDS011;65924;47.250;11.332;2023-05-19T03:17:25;5.60;;;3.10;;
76989;SDS011;65924;47.250;11.332;2023-05-19T03:18:05;5.50;;;3.60;;
76989;SDS011;65924;47.250;11.332;2023-05-19T03:18:44;6.80;;;3.80;;
76989;SDS011;65924;47.250;11.332;2023-05-19T03:19:23;5.70;;;2.90;;
76989;SDS011;65924;47.250;11.332;2023-05-19T03:20:02;5.10;;;3.00;;
76989;SDS011;65924;47.250;11.332;2023-05-19T03:20:43;5.20;;;2.20;;
76989;SDS011;65924;47.250;11.332;2023-05-19T03:21:22;6.40;;;3.40;;
76989;SDS011;65924;47.250;11.332;2023-05-19T03:22:01;7.00;;;3.60;;
76989;SDS011;65924;47.250;11.332;2023-05-19T03:22:40;7.70;;;3.40;;
76989;SDS011;65924;47.250;11.332;2023-05-19T03:23:20;5.20;;;3.10;;
76989;SDS011;65924;47.250;11.332;2023-05-19T03:23:59;4.40;;;2.20;;
76989;SDS011;65924;47.250;11.332;2023-05-19T03:24:38;4.20;;;2.30;;
76989;SDS011;65924;47.250;11.332;2023-05-19T03:25:17;3.90;;;2.20;;
76989;SDS011;65924;47.250;11.332;2023-05-19T03:25:55;3.30;;;1.20;;
76989;SDS011;65924;47.250;11.332;2023-05-19T03:26:34;4.60;;;2.90;;
76989;SDS011;65924;47.250;11.332;2023-05-19T03:27:13;5.30;;;3.20;;
76989;SDS011;65924;47.250;11.332;2023-05-19T03:27:51;5.00;;;2.80;;
76989;SDS011;65924;47.250;11.332;2023-05-19T03:28:30;8.70;;;2.90;;
76989;SDS011;65924;47.250;11.332;2023-05-19T03:29:08;4.60;;;2.60;;
76989;SDS011;65924;47.250;11.332;2023-05-19T03:29:48;5.70;;;3.10;;
76989;SDS011;65924;47.250;11.332;2023-05-19T03:30:27;5.50;;;3.20;;
76989;SDS011;65924;47.250;11.332;2023-05-19T03:31:26;7.60;;;3.50;;
76989;SDS011;65924;47.250;11.332;2023-05-19T03:32:05;6.60;;;2.90;;
76989;SDS011;65924;47.250;11.332;2023-05-19T03:32:43;7.10;;;3.90;;
76989;SDS011;65924;47.250;11.332;2023-05-19T03:33:22;5.90;;;3.50;;
76989;SDS011;65924;47.250;11.332;2023-05-19T03:34:01;6.30;;;3.50;;
76989;SDS011;65924;47.250;11.332;2023-05-19T03:34:40;7.20;;;3.80;;
76989;SDS011;65924;47.250;11.332;2023-05-19T03:35:19;7.10;;;3.50;;
76989;SDS011;65924;47.250;11.332;2023-05-19T03:35:58;6.10;;;4.00;;
76989;SDS011;65924;47.250;11.332;2023-05-19T03:36:38;5.50;;;3.70;;
76989;SDS011;65924;47.250;11.332;2023-05-19T03:37:18;5.90;;;3.40;;
76989;SDS011;65924;47.250;11.332;2023-05-19T03:37:57;6.60;;;3.40;;
76989;SDS011;65924;47.250;11.332;2023-05-19T03:38:35;8.00;;;3.40;;
76989;SDS011;65924;47.250;11.332;2023-05-19T03:39:14;4.80;;;2.40;;
76989;SDS011;65924;47.250;11.332;2023-05-19T03:39:53;4.00;;;2.00;;
76989;SDS011;65924;47.250;11.332;2023-05-19T03:40:32;6.50;;;3.90;;
76989;SDS011;65924;47.250;11.332;2023-05-19T03:41:17;3.90;;;1.90;;
76989;SDS011;65924;47.250;11.332;2023-05-19T03:41:55;6.10;;;2.70;;
76989;SDS011;65924;47.250;11.332;2023-05-19T03:42:34;6.70;;;3.30;;
76989;SDS011;65924;47.250;11.332;2023-05-19T03:43:12;6.50;;;3.80;;
76989;SDS011;65924;47.250;11.332;2023-05-19T03:43:57;5.60;;;3.60;;
76989;SDS011;65924;47.250;11.332;2023-05-19T03:44:36;5.30;;;2.50;;
76989;SDS011;65924;47.250;11.332;2023-05-19T03:45:14;7.10;;;3.80;;
76989;SDS011;65924;47.250;11.332;2023-05-19T03:45:54;6.00;;;3.30;;
76989;SDS011;65924;47.250;11.332;2023-05-19T03:46:52;8.40;;;3.60;;
76989;SDS011;65924;47.250;11.332;2023-05-19T03:47:57;5.50;;;3.10;;
76989;SDS011;65924;47.250;11.332;2023-05-19T03:49:02;4.90;;;2.50;;
76989;SDS011;65924;47.250;11.332;2023-05-19T03:50:07;5.00;;;3.00;;
76989;SDS011;65924;47.250;11.332;2023-05-19T03:51:03;4.40;;;2.40;;
76989;SDS011;65924;47.250;11.332;2023-05-19T03:51:41;7.00;;;3.50;;
76989;SDS011;65924;47.250;11.332;2023-05-19T03:52:32;4.70;;;2.70;;
76989;SDS011;65924;47.250;11.332;2023-05-19T03:53:18;3.70;;;1.90;;
76989;SDS011;65924;47.250;11.332;2023-05-19T03:53:56;5.00;;;2.30;;
76989;SDS011;65924;47.250;11.332;2023-05-19T03:54:35;3.10;;;1.50;;
76989;SDS011;65924;47.250;11.332;2023-05-19T03:55:17;6.40;;;2.00;;
76989;SDS011;65924;47.250;11.332;2023-05-19T03:55:58;6.80;;;2.60;;
76989;SDS011;65924;47.250;11.332;2023-05-19T03:56:37;6.20;;;3.10;;
76989;SDS011;65924;47.250;11.332;2023-05-19T03:57:19;6.40;;;3.20;;
76989;SDS011;65924;47.250;11.332;2023-05-19T03:57:58;4.30;;;2.00;;
76989;SDS011;65924;47.250;11.332;2023-05-19T03:58:37;6.50;;;3.50;;
76989;SDS011;65924;47.250;11.332;2023-05-19T03:59:17;6.60;;;3.00;;
76989;SDS011;65924;47.250;11.332;2023-05-19T03:59:56;6.00;;;2.70;;
76989;SDS011;65924;47.250;11.332;2023-05-19T04:00:34;4.30;;;1.90;;
76989;SDS011;65924;47.250;11.332;2023-05-19T04:01:13;5.40;;;2.80;;
76989;SDS011;65924;47.250;11.332;2023-05-19T04:01:51;4.70;;;2.40;;
76989;SDS011;65924;47.250;11.332;2023-05-19T04:02:30;4.50;;;2.50;;
76989;SDS011;65924;47.250;11.332;2023-05-19T04:03:08;6.80;;;3.40;;
76989;SDS011;65924;47.250;11.332;2023-05-19T04:03:47;6.20;;;3.70;;
76989;SDS011;65924;47.250;11.332;2023-05-19T04:04:26;5.50;;;3.40;;
76989;SDS011;65924;47.250;11.332;2023-05-19T04:05:06;5.90;;;3.50;;
76989;SDS011;65924;47.250;11.332;2023-05-19T04:05:45;9.20;;;3.60;;
76989;SDS011;65924;47.250;11.332;2023-05-19T04:06:24;7.00;;;3.70;;
76989;SDS011;65924;47.250;11.332;2023-05-19T04:07:02;8.10;;;3.80;;
76989;SDS011;65924;47.250;11.332;2023-05-19T04:07:41;6.00;;;3.40;;
76989;SDS011;65924;47.250;11.332;2023-05-19T04:08:20;6.70;;;4.20;;
76989;SDS011;65924;47.250;11.332;2023-05-19T04:08:58;6.20;;;3.40;;
76989;SDS011;65924;47.250;11.332;2023-05-19T04:09:41;7.10;;;3.80;;
76989;SDS011;65924;47.250;11.332;2023-05-19T04:10:19;11.00;;;3.50;;
76989;SDS011;65924;47.250;11.332;2023-05-19T04:10:58;6.20;;;3.20;;
76989;SDS011;65924;47.250;11.332;2023-05-19T04:11:37;7.40;;;4.10;;
76989;SDS011;65924;47.250;11.332;2023-05-19T04:12:16;6.40;;;4.30;;
76989;SDS011;65924;47.250;11.332;2023-05-19T04:12:55;5.70;;;3.20;;
76989;SDS011;65924;47.250;11.332;2023-05-19T04:13:33;6.20;;;3.70;;
76989;SDS011;65924;47.250;11.332;2023-05-19T04:14:12;6.40;;;4.00;;
76989;SDS011;65924;47.250;11.332;2023-05-19T04:14:51;6.30;;;3.40;;
76989;SDS011;65924;47.250;11.332;2023-05-19T04:15:29;6.40;;;3.80;;
76989;SDS011;65924;47.250;11.332;2023-05-19T04:16:08;5.60;;;3.20;;
76989;SDS011;65924;47.250;11.332;2023-05-19T04:16:47;6.30;;;2.80;;
76989;SDS011;65924;47.250;11.332;2023-05-19T04:17:25;4.30;;;2.30;;